sensor_id;sensor_type;location;lat;lon;timestamp;P1;durP1;ratioP1;P2;durP2;ratioP2
65996;SDS011;52765;52.258;21.052;2023-07-29T00:01:27;11.15;;;5.90;;
65996;SDS011;52765;52.258;21.052;2023-07-29T00:03:52;8.73;;;5.38;;
65996;SDS011;52765;52.258;21.052;2023-07-29T00:06:18;9.50;;;5.57;;
65996;SDS011;52765;52.258;21.052;2023-07-29T00:08:43;8.60;;;5.65;;
65996;SDS011;52765;52.258;21.052;2023-07-29T00:11:08;8.13;;;5.45;;
65996;SDS011;52765;52.258;21.052;2023-07-29T00:13:34;7.90;;;5.95;;
65996;SDS011;52765;52.258;21.052;2023-07-29T00:15:59;8.23;;;5.78;;
65996;SDS011;52765;52.258;21.052;2023-07-29T00:18:24;10.55;;;5.57;;
65996;SDS011;52765;52.258;21.052;2023-07-29T00:20:50;8.18;;;6.25;;
65996;SDS011;52765;52.258;21.052;2023-07-29T00:23:17;9.13;;;5.93;;
65996;SDS011;52765;52.258;21.052;2023-07-29T00:25:45;9.25;;;5.53;;
65996;SDS011;52765;52.258;21.052;2023-07-29T00:28:11;8.27;;;5.80;;
65996;SDS011;52765;52.258;21.052;2023-07-29T00:30:37;10.00;;;5.35;;
65996;SDS011;52765;52.258;21.052;2023-07-29T00:33:03;8.77;;;6.13;;
65996;SDS011;52765;52.258;21.052;2023-07-29T00:35:28;9.23;;;5.43;;
65996;SDS011;52765;52.258;21.052;2023-07-29T00:37:54;10.95;;;6.25;;
65996;SDS011;52765;52.258;21.052;2023-07-29T00:40:20;10.32;;;5.53;;
65996;SDS011;52765;52.258;21.052;2023-07-29T00:42:49;9.68;;;5.90;;
65996;SDS011;52765;52.258;21.052;2023-07-29T00:45:18;9.45;;;5.35;;
65996;SDS011;52765;52.258;21.052;2023-07-29T00:47:49;8.38;;;5.15;;
65996;SDS011;52765;52.258;21.052;2023-07-29T00:50:18;10.80;;;6.15;;
65996;SDS011;52765;52.258;21.052;2023-07-29T00:52:47;11.30;;;6.00;;
65996;SDS011;52765;52.258;21.052;2023-07-29T00:55:17;11.20;;;6.43;;
65996;SDS011;52765;52.258;21.052;2023-07-29T00:57:45;12.48;;;6.90;;
65996;SDS011;52765;52.258;21.052;2023-07-29T01:00:18;9.68;;;6.43;;
65996;SDS011;52765;52.258;21.052;2023-07-29T01:02:45;12.55;;;7.63;;
65996;SDS011;52765;52.258;21.052;2023-07-29T01:05:13;11.20;;;6.00;;
65996;SDS011;52765;52.258;21.052;2023-07-29T01:13:31;8.02;;;5.75;;
65996;SDS011;52765;52.258;21.052;2023-07-29T01:16:29;9.50;;;6.57;;
65996;SDS011;52765;52.258;21.052;2023-07-29T01:19:03;7.43;;;6.13;;
65996;SDS011;52765;52.258;21.052;2023-07-29T01:21:38;9.48;;;5.97;;
65996;SDS011;52765;52.258;21.052;2023-07-29T01:24:06;11.95;;;6.70;;
65996;SDS011;52765;52.258;21.052;2023-07-29T01:26:34;12.05;;;7.25;;
65996;SDS011;52765;52.258;21.052;2023-07-29T01:29:01;13.68;;;7.63;;
65996;SDS011;52765;52.258;21.052;2023-07-29T01:31:37;14.30;;;8.88;;
65996;SDS011;52765;52.258;21.052;2023-07-29T01:36:44;7.80;;;6.47;;
65996;SDS011;52765;52.258;21.052;2023-07-29T01:39:11;15.07;;;10.32;;
65996;SDS011;52765;52.258;21.052;2023-07-29T01:41:39;12.45;;;8.30;;
65996;SDS011;52765;52.258;21.052;2023-07-29T01:44:05;14.27;;;8.63;;
65996;SDS011;52765;52.258;21.052;2023-07-29T01:46:34;11.50;;;7.68;;
65996;SDS011;52765;52.258;21.052;2023-07-29T01:49:00;14.95;;;10.38;;
65996;SDS011;52765;52.258;21.052;2023-07-29T01:51:25;18.20;;;10.18;;
65996;SDS011;52765;52.258;21.052;2023-07-29T01:53:51;12.20;;;8.73;;
65996;SDS011;52765;52.258;21.052;2023-07-29T01:56:16;13.55;;;9.98;;
65996;SDS011;52765;52.258;21.052;2023-07-29T01:58:42;20.05;;;10.80;;
65996;SDS011;52765;52.258;21.052;2023-07-29T02:01:07;14.48;;;9.60;;
65996;SDS011;52765;52.258;21.052;2023-07-29T02:03:32;11.45;;;8.82;;
65996;SDS011;52765;52.258;21.052;2023-07-29T02:05:58;15.55;;;10.32;;
65996;SDS011;52765;52.258;21.052;2023-07-29T02:08:23;13.82;;;9.20;;
65996;SDS011;52765;52.258;21.052;2023-07-29T02:10:48;11.60;;;8.40;;
65996;SDS011;52765;52.258;21.052;2023-07-29T02:13:14;13.00;;;8.65;;
65996;SDS011;52765;52.258;21.052;2023-07-29T02:15:45;12.07;;;8.30;;
65996;SDS011;52765;52.258;21.052;2023-07-29T02:18:11;12.27;;;8.90;;
65996;SDS011;52765;52.258;21.052;2023-07-29T02:20:36;15.30;;;9.27;;
65996;SDS011;52765;52.258;21.052;2023-07-29T02:23:02;12.50;;;8.80;;
65996;SDS011;52765;52.258;21.052;2023-07-29T02:25:27;9.05;;;6.72;;
65996;SDS011;52765;52.258;21.052;2023-07-29T02:27:52;12.20;;;8.20;;
65996;SDS011;52765;52.258;21.052;2023-07-29T02:30:18;12.93;;;8.27;;
65996;SDS011;52765;52.258;21.052;2023-07-29T02:32:43;12.35;;;8.10;;
65996;SDS011;52765;52.258;21.052;2023-07-29T02:35:09;11.55;;;7.70;;
65996;SDS011;52765;52.258;21.052;2023-07-29T02:37:35;17.73;;;9.07;;
65996;SDS011;52765;52.258;21.052;2023-07-29T02:40:00;12.23;;;8.30;;
65996;SDS011;52765;52.258;21.052;2023-07-29T02:42:25;11.00;;;8.10;;
65996;SDS011;52765;52.258;21.052;2023-07-29T02:44:51;9.68;;;7.13;;
65996;SDS011;52765;52.258;21.052;2023-07-29T02:47:16;12.18;;;8.82;;
65996;SDS011;52765;52.258;21.052;2023-07-29T02:49:42;10.95;;;7.47;;
65996;SDS011;52765;52.258;21.052;2023-07-29T02:52:07;12.23;;;7.80;;
65996;SDS011;52765;52.258;21.052;2023-07-29T02:54:32;10.30;;;7.15;;
65996;SDS011;52765;52.258;21.052;2023-07-29T02:56:58;11.27;;;8.00;;
65996;SDS011;52765;52.258;21.052;2023-07-29T02:59:23;12.25;;;7.88;;
65996;SDS011;52765;52.258;21.052;2023-07-29T03:01:49;10.80;;;7.80;;
65996;SDS011;52765;52.258;21.052;2023-07-29T03:04:15;13.50;;;9.10;;
65996;SDS011;52765;52.258;21.052;2023-07-29T03:06:40;13.90;;;9.10;;
65996;SDS011;52765;52.258;21.052;2023-07-29T03:09:05;11.32;;;7.80;;
65996;SDS011;52765;52.258;21.052;2023-07-29T03:11:31;10.48;;;8.00;;
65996;SDS011;52765;52.258;21.052;2023-07-29T03:13:56;10.98;;;8.27;;
65996;SDS011;52765;52.258;21.052;2023-07-29T03:16:22;11.65;;;6.82;;
65996;SDS011;52765;52.258;21.052;2023-07-29T03:18:48;12.32;;;7.60;;
65996;SDS011;52765;52.258;21.052;2023-07-29T03:21:13;10.70;;;7.32;;
65996;SDS011;52765;52.258;21.052;2023-07-29T03:23:39;10.63;;;7.68;;
65996;SDS011;52765;52.258;21.052;2023-07-29T03:26:04;11.05;;;7.68;;
65996;SDS011;52765;52.258;21.052;2023-07-29T03:28:37;10.20;;;7.35;;
65996;SDS011;52765;52.258;21.052;2023-07-29T03:31:04;10.70;;;7.80;;
65996;SDS011;52765;52.258;21.052;2023-07-29T03:33:30;10.23;;;7.63;;
65996;SDS011;52765;52.258;21.052;2023-07-29T03:35:55;10.88;;;8.07;;
65996;SDS011;52765;52.258;21.052;2023-07-29T03:38:21;12.60;;;8.30;;
65996;SDS011;52765;52.258;21.052;2023-07-29T03:40:46;13.82;;;9.20;;
65996;SDS011;52765;52.258;21.052;2023-07-29T03:43:12;12.77;;;9.05;;
65996;SDS011;52765;52.258;21.052;2023-07-29T03:45:38;13.35;;;10.07;;
65996;SDS011;52765;52.258;21.052;2023-07-29T03:48:05;14.38;;;9.20;;
65996;SDS011;52765;52.258;21.052;2023-07-29T03:50:32;11.23;;;8.27;;
65996;SDS011;52765;52.258;21.052;2023-07-29T03:52:59;10.23;;;7.95;;
65996;SDS011;52765;52.258;21.052;2023-07-29T03:55:24;11.90;;;7.90;;
65996;SDS011;52765;52.258;21.052;2023-07-29T03:57:50;13.98;;;9.45;;
65996;SDS011;52765;52.258;21.052;2023-07-29T04:00:15;9.77;;;7.07;;
65996;SDS011;52765;52.258;21.052;2023-07-29T04:02:44;12.00;;;8.35;;
65996;SDS011;52765;52.258;21.052;2023-07-29T04:05:10;7.95;;;6.65;;
65996;SDS011;52765;52.258;21.052;2023-07-29T04:07:36;9.77;;;7.63;;
65996;SDS011;52765;52.258;21.052;2023-07-29T04:10:02;10.52;;;8.18;;
65996;SDS011;52765;52.258;21.052;2023-07-29T04:12:29;12.10;;;8.23;;
65996;SDS011;52765;52.258;21.052;2023-07-29T04:14:54;11.82;;;8.55;;
65996;SDS011;52765;52.258;21.052;2023-07-29T04:17:20;12.57;;;9.15;;
65996;SDS011;52765;52.258;21.052;2023-07-29T04:19:47;10.02;;;7.57;;
65996;SDS011;52765;52.258;21.052;2023-07-29T04:22:14;14.30;;;9.18;;
65996;SDS011;52765;52.258;21.052;2023-07-29T04:24:40;14.65;;;10.55;;
65996;SDS011;52765;52.258;21.052;2023-07-29T04:27:05;12.90;;;9.25;;
65996;SDS011;52765;52.258;21.052;2023-07-29T04:29:31;18.65;;;10.43;;
65996;SDS011;52765;52.258;21.052;2023-07-29T04:31:56;13.32;;;10.30;;
65996;SDS011;52765;52.258;21.052;2023-07-29T04:34:22;13.93;;;10.23;;
65996;SDS011;52765;52.258;21.052;2023-07-29T04:36:48;12.07;;;9.07;;
65996;SDS011;52765;52.258;21.052;2023-07-29T04:39:14;13.30;;;9.35;;
65996;SDS011;52765;52.258;21.052;2023-07-29T04:41:39;16.42;;;11.63;;
65996;SDS011;52765;52.258;21.052;2023-07-29T04:44:08;20.27;;;13.23;;
65996;SDS011;52765;52.258;21.052;2023-07-29T04:46:35;17.88;;;12.93;;
65996;SDS011;52765;52.258;21.052;2023-07-29T04:49:01;19.58;;;12.73;;
65996;SDS011;52765;52.258;21.052;2023-07-29T04:51:27;19.15;;;13.48;;
65996;SDS011;52765;52.258;21.052;2023-07-29T04:53:53;14.57;;;10.52;;
65996;SDS011;52765;52.258;21.052;2023-07-29T04:56:18;19.05;;;12.82;;
65996;SDS011;52765;52.258;21.052;2023-07-29T04:58:44;18.40;;;11.13;;
65996;SDS011;52765;52.258;21.052;2023-07-29T05:01:09;18.88;;;11.75;;
65996;SDS011;52765;52.258;21.052;2023-07-29T05:03:35;17.85;;;13.23;;
65996;SDS011;52765;52.258;21.052;2023-07-29T05:06:02;17.27;;;12.10;;
65996;SDS011;52765;52.258;21.052;2023-07-29T05:08:27;17.20;;;11.90;;
65996;SDS011;52765;52.258;21.052;2023-07-29T05:10:53;20.85;;;13.20;;
65996;SDS011;52765;52.258;21.052;2023-07-29T05:13:19;13.40;;;10.52;;
65996;SDS011;52765;52.258;21.052;2023-07-29T05:15:44;24.77;;;16.33;;
65996;SDS011;52765;52.258;21.052;2023-07-29T05:18:10;18.98;;;13.95;;
65996;SDS011;52765;52.258;21.052;2023-07-29T05:20:36;17.95;;;12.50;;
65996;SDS011;52765;52.258;21.052;2023-07-29T05:23:01;15.18;;;11.35;;
65996;SDS011;52765;52.258;21.052;2023-07-29T05:25:27;13.05;;;9.98;;
65996;SDS011;52765;52.258;21.052;2023-07-29T05:27:54;15.23;;;11.70;;
65996;SDS011;52765;52.258;21.052;2023-07-29T05:30:19;13.02;;;10.35;;
65996;SDS011;52765;52.258;21.052;2023-07-29T05:32:45;13.73;;;9.07;;
65996;SDS011;52765;52.258;21.052;2023-07-29T05:35:10;10.45;;;8.88;;
65996;SDS011;52765;52.258;21.052;2023-07-29T05:37:39;14.73;;;10.82;;
65996;SDS011;52765;52.258;21.052;2023-07-29T05:40:07;17.73;;;12.15;;
65996;SDS011;52765;52.258;21.052;2023-07-29T05:42:34;13.07;;;9.98;;
65996;SDS011;52765;52.258;21.052;2023-07-29T05:44:59;14.02;;;9.40;;
65996;SDS011;52765;52.258;21.052;2023-07-29T05:47:25;12.77;;;8.80;;
65996;SDS011;52765;52.258;21.052;2023-07-29T05:49:50;10.80;;;8.10;;
65996;SDS011;52765;52.258;21.052;2023-07-29T05:52:16;11.52;;;8.60;;
65996;SDS011;52765;52.258;21.052;2023-07-29T05:54:41;12.18;;;8.23;;
65996;SDS011;52765;52.258;21.052;2023-07-29T05:57:11;9.40;;;7.32;;
65996;SDS011;52765;52.258;21.052;2023-07-29T05:59:37;17.30;;;11.13;;
65996;SDS011;52765;52.258;21.052;2023-07-29T06:02:02;14.38;;;9.75;;
65996;SDS011;52765;52.258;21.052;2023-07-29T06:04:28;13.30;;;9.48;;
65996;SDS011;52765;52.258;21.052;2023-07-29T06:06:53;11.35;;;8.50;;
65996;SDS011;52765;52.258;21.052;2023-07-29T06:09:20;11.73;;;9.25;;
65996;SDS011;52765;52.258;21.052;2023-07-29T06:11:46;11.25;;;9.02;;
65996;SDS011;52765;52.258;21.052;2023-07-29T06:14:12;12.48;;;9.35;;
65996;SDS011;52765;52.258;21.052;2023-07-29T06:16:40;12.07;;;8.70;;
65996;SDS011;52765;52.258;21.052;2023-07-29T06:19:05;11.77;;;8.45;;
65996;SDS011;52765;52.258;21.052;2023-07-29T06:21:33;10.45;;;7.80;;
65996;SDS011;52765;52.258;21.052;2023-07-29T06:23:59;13.10;;;8.60;;
65996;SDS011;52765;52.258;21.052;2023-07-29T06:26:24;9.25;;;7.28;;
65996;SDS011;52765;52.258;21.052;2023-07-29T06:28:50;9.75;;;7.70;;
65996;SDS011;52765;52.258;21.052;2023-07-29T06:31:16;11.50;;;8.90;;
65996;SDS011;52765;52.258;21.052;2023-07-29T06:33:41;17.02;;;11.25;;
65996;SDS011;52765;52.258;21.052;2023-07-29T06:36:07;13.30;;;9.80;;
65996;SDS011;52765;52.258;21.052;2023-07-29T06:38:32;11.40;;;8.63;;
65996;SDS011;52765;52.258;21.052;2023-07-29T06:40:58;11.27;;;8.82;;
65996;SDS011;52765;52.258;21.052;2023-07-29T06:43:23;9.20;;;7.53;;
65996;SDS011;52765;52.258;21.052;2023-07-29T06:45:49;8.60;;;6.63;;
65996;SDS011;52765;52.258;21.052;2023-07-29T06:48:14;11.90;;;9.35;;
65996;SDS011;52765;52.258;21.052;2023-07-29T06:50:40;13.88;;;9.13;;
65996;SDS011;52765;52.258;21.052;2023-07-29T06:53:05;13.23;;;10.90;;
65996;SDS011;52765;52.258;21.052;2023-07-29T06:55:31;13.55;;;9.85;;
65996;SDS011;52765;52.258;21.052;2023-07-29T06:57:56;12.73;;;9.70;;
65996;SDS011;52765;52.258;21.052;2023-07-29T07:00:22;11.20;;;7.90;;
65996;SDS011;52765;52.258;21.052;2023-07-29T07:02:47;9.40;;;7.68;;
65996;SDS011;52765;52.258;21.052;2023-07-29T07:05:13;11.00;;;7.97;;
65996;SDS011;52765;52.258;21.052;2023-07-29T07:07:38;12.50;;;9.65;;
65996;SDS011;52765;52.258;21.052;2023-07-29T07:10:04;11.55;;;8.40;;
65996;SDS011;52765;52.258;21.052;2023-07-29T07:12:29;11.50;;;8.95;;
65996;SDS011;52765;52.258;21.052;2023-07-29T07:14:55;9.77;;;8.10;;
65996;SDS011;52765;52.258;21.052;2023-07-29T07:17:20;11.18;;;8.80;;
65996;SDS011;52765;52.258;21.052;2023-07-29T07:19:46;11.48;;;9.43;;
65996;SDS011;52765;52.258;21.052;2023-07-29T07:22:11;10.63;;;9.23;;
65996;SDS011;52765;52.258;21.052;2023-07-29T07:24:37;11.18;;;8.02;;
65996;SDS011;52765;52.258;21.052;2023-07-29T07:27:02;8.85;;;7.00;;
65996;SDS011;52765;52.258;21.052;2023-07-29T07:29:28;8.15;;;7.25;;
65996;SDS011;52765;52.258;21.052;2023-07-29T07:31:55;8.20;;;7.20;;
65996;SDS011;52765;52.258;21.052;2023-07-29T07:34:21;10.32;;;8.20;;
65996;SDS011;52765;52.258;21.052;2023-07-29T07:36:47;8.48;;;7.10;;
65996;SDS011;52765;52.258;21.052;2023-07-29T07:39:13;8.93;;;7.28;;
65996;SDS011;52765;52.258;21.052;2023-07-29T07:41:40;10.07;;;7.18;;
65996;SDS011;52765;52.258;21.052;2023-07-29T07:44:06;9.30;;;7.55;;
65996;SDS011;52765;52.258;21.052;2023-07-29T07:46:32;12.10;;;10.05;;
65996;SDS011;52765;52.258;21.052;2023-07-29T07:49:00;12.98;;;10.10;;
65996;SDS011;52765;52.258;21.052;2023-07-29T07:51:25;10.07;;;8.23;;
65996;SDS011;52765;52.258;21.052;2023-07-29T07:53:50;8.98;;;7.05;;
65996;SDS011;52765;52.258;21.052;2023-07-29T07:56:16;7.47;;;6.65;;
65996;SDS011;52765;52.258;21.052;2023-07-29T07:58:41;9.80;;;7.95;;
65996;SDS011;52765;52.258;21.052;2023-07-29T08:01:07;10.68;;;8.07;;
65996;SDS011;52765;52.258;21.052;2023-07-29T08:03:34;10.35;;;7.88;;
65996;SDS011;52765;52.258;21.052;2023-07-29T08:06:00;13.10;;;8.35;;
65996;SDS011;52765;52.258;21.052;2023-07-29T08:08:26;8.85;;;7.40;;
65996;SDS011;52765;52.258;21.052;2023-07-29T08:10:52;9.65;;;7.35;;
65996;SDS011;52765;52.258;21.052;2023-07-29T08:13:19;9.27;;;7.43;;
65996;SDS011;52765;52.258;21.052;2023-07-29T08:15:46;9.07;;;6.32;;
65996;SDS011;52765;52.258;21.052;2023-07-29T08:18:12;7.90;;;6.25;;
65996;SDS011;52765;52.258;21.052;2023-07-29T08:20:38;10.27;;;5.90;;
65996;SDS011;52765;52.258;21.052;2023-07-29T08:23:03;9.70;;;7.97;;
65996;SDS011;52765;52.258;21.052;2023-07-29T08:25:29;6.82;;;6.10;;
65996;SDS011;52765;52.258;21.052;2023-07-29T08:27:54;7.82;;;6.72;;
65996;SDS011;52765;52.258;21.052;2023-07-29T08:30:20;8.13;;;7.32;;
65996;SDS011;52765;52.258;21.052;2023-07-29T08:32:48;10.13;;;8.27;;
65996;SDS011;52765;52.258;21.052;2023-07-29T08:35:13;9.35;;;7.68;;
65996;SDS011;52765;52.258;21.052;2023-07-29T08:37:39;9.38;;;7.70;;
65996;SDS011;52765;52.258;21.052;2023-07-29T08:40:04;9.07;;;7.07;;
65996;SDS011;52765;52.258;21.052;2023-07-29T08:42:31;8.18;;;7.00;;
65996;SDS011;52765;52.258;21.052;2023-07-29T08:45:00;7.43;;;6.18;;
65996;SDS011;52765;52.258;21.052;2023-07-29T08:47:31;9.15;;;6.63;;
65996;SDS011;52765;52.258;21.052;2023-07-29T08:49:56;7.53;;;5.30;;
65996;SDS011;52765;52.258;21.052;2023-07-29T08:52:24;7.05;;;5.40;;
65996;SDS011;52765;52.258;21.052;2023-07-29T08:54:51;7.40;;;5.65;;
65996;SDS011;52765;52.258;21.052;2023-07-29T08:57:17;5.90;;;5.10;;
65996;SDS011;52765;52.258;21.052;2023-07-29T08:59:45;6.15;;;4.60;;
65996;SDS011;52765;52.258;21.052;2023-07-29T09:02:11;6.18;;;4.88;;
65996;SDS011;52765;52.258;21.052;2023-07-29T09:04:36;5.35;;;4.30;;
65996;SDS011;52765;52.258;21.052;2023-07-29T09:07:02;4.88;;;4.10;;
65996;SDS011;52765;52.258;21.052;2023-07-29T09:09:28;6.97;;;4.50;;
65996;SDS011;52765;52.258;21.052;2023-07-29T09:11:53;4.63;;;3.42;;
65996;SDS011;52765;52.258;21.052;2023-07-29T09:14:21;4.93;;;3.72;;
65996;SDS011;52765;52.258;21.052;2023-07-29T09:16:46;4.88;;;3.83;;
65996;SDS011;52765;52.258;21.052;2023-07-29T09:19:12;4.70;;;3.70;;
65996;SDS011;52765;52.258;21.052;2023-07-29T09:21:38;3.50;;;2.88;;
65996;SDS011;52765;52.258;21.052;2023-07-29T09:24:05;6.18;;;3.03;;
65996;SDS011;52765;52.258;21.052;2023-07-29T09:26:38;4.32;;;3.47;;
65996;SDS011;52765;52.258;21.052;2023-07-29T09:29:08;3.17;;;2.67;;
65996;SDS011;52765;52.258;21.052;2023-07-29T09:31:35;3.88;;;3.28;;
65996;SDS011;52765;52.258;21.052;2023-07-29T09:34:02;3.05;;;2.75;;
65996;SDS011;52765;52.258;21.052;2023-07-29T09:36:30;3.03;;;2.72;;
65996;SDS011;52765;52.258;21.052;2023-07-29T09:38:57;2.65;;;2.42;;
65996;SDS011;52765;52.258;21.052;2023-07-29T09:41:27;4.50;;;3.20;;
65996;SDS011;52765;52.258;21.052;2023-07-29T09:43:57;6.47;;;3.83;;
65996;SDS011;52765;52.258;21.052;2023-07-29T09:46:25;5.88;;;2.88;;
65996;SDS011;52765;52.258;21.052;2023-07-29T09:48:56;3.13;;;2.70;;
65996;SDS011;52765;52.258;21.052;2023-07-29T09:51:22;3.58;;;2.90;;
65996;SDS011;52765;52.258;21.052;2023-07-29T09:53:48;4.53;;;3.78;;
65996;SDS011;52765;52.258;21.052;2023-07-29T09:56:15;3.20;;;2.90;;
65996;SDS011;52765;52.258;21.052;2023-07-29T09:58:42;3.38;;;2.28;;
65996;SDS011;52765;52.258;21.052;2023-07-29T10:01:11;2.63;;;2.42;;
65996;SDS011;52765;52.258;21.052;2023-07-29T10:03:40;4.25;;;2.10;;
65996;SDS011;52765;52.258;21.052;2023-07-29T10:06:06;2.40;;;2.20;;
65996;SDS011;52765;52.258;21.052;2023-07-29T10:08:32;4.18;;;2.60;;
65996;SDS011;52765;52.258;21.052;2023-07-29T10:11:04;4.65;;;2.35;;
65996;SDS011;52765;52.258;21.052;2023-07-29T10:13:31;3.78;;;2.33;;
65996;SDS011;52765;52.258;21.052;2023-07-29T10:15:57;3.00;;;2.22;;
65996;SDS011;52765;52.258;21.052;2023-07-29T10:18:24;2.78;;;2.40;;
65996;SDS011;52765;52.258;21.052;2023-07-29T10:20:53;5.00;;;2.33;;
65996;SDS011;52765;52.258;21.052;2023-07-29T10:23:22;3.83;;;3.05;;
65996;SDS011;52765;52.258;21.052;2023-07-29T10:25:57;2.35;;;2.10;;
65996;SDS011;52765;52.258;21.052;2023-07-29T10:28:28;2.10;;;2.00;;
65996;SDS011;52765;52.258;21.052;2023-07-29T10:30:54;3.90;;;2.13;;
65996;SDS011;52765;52.258;21.052;2023-07-29T10:33:21;3.13;;;1.92;;
65996;SDS011;52765;52.258;21.052;2023-07-29T10:35:47;3.60;;;1.67;;
65996;SDS011;52765;52.258;21.052;2023-07-29T10:38:13;15.98;;;9.70;;
65996;SDS011;52765;52.258;21.052;2023-07-29T10:40:43;5.32;;;3.50;;
65996;SDS011;52765;52.258;21.052;2023-07-29T10:43:14;2.90;;;1.93;;
65996;SDS011;52765;52.258;21.052;2023-07-29T10:45:44;2.10;;;1.90;;
65996;SDS011;52765;52.258;21.052;2023-07-29T10:48:13;3.47;;;1.90;;
65996;SDS011;52765;52.258;21.052;2023-07-29T10:53:57;3.05;;;2.10;;
65996;SDS011;52765;52.258;21.052;2023-07-29T10:56:43;3.17;;;2.10;;
65996;SDS011;52765;52.258;21.052;2023-07-29T11:01:41;3.55;;;2.90;;
65996;SDS011;52765;52.258;21.052;2023-07-29T11:15:04;2.83;;;1.80;;
65996;SDS011;52765;52.258;21.052;2023-07-29T11:17:30;2.67;;;2.30;;
65996;SDS011;52765;52.258;21.052;2023-07-29T11:20:00;2.40;;;1.98;;
65996;SDS011;52765;52.258;21.052;2023-07-29T11:22:26;4.22;;;2.00;;
65996;SDS011;52765;52.258;21.052;2023-07-29T11:24:51;4.38;;;2.05;;
65996;SDS011;52765;52.258;21.052;2023-07-29T11:27:17;3.22;;;2.03;;
65996;SDS011;52765;52.258;21.052;2023-07-29T11:29:43;2.08;;;1.77;;
65996;SDS011;52765;52.258;21.052;2023-07-29T11:32:09;3.13;;;1.90;;
65996;SDS011;52765;52.258;21.052;2023-07-29T11:34:34;2.75;;;1.90;;
65996;SDS011;52765;52.258;21.052;2023-07-29T11:37:00;2.85;;;1.60;;
65996;SDS011;52765;52.258;21.052;2023-07-29T11:39:25;2.22;;;1.70;;
65996;SDS011;52765;52.258;21.052;2023-07-29T11:41:51;2.10;;;1.70;;
65996;SDS011;52765;52.258;21.052;2023-07-29T11:44:16;5.03;;;2.05;;
65996;SDS011;52765;52.258;21.052;2023-07-29T11:46:49;2.10;;;1.90;;
65996;SDS011;52765;52.258;21.052;2023-07-29T11:49:14;2.38;;;2.05;;
65996;SDS011;52765;52.258;21.052;2023-07-29T11:51:41;2.38;;;1.92;;
65996;SDS011;52765;52.258;21.052;2023-07-29T11:54:06;2.15;;;1.80;;
65996;SDS011;52765;52.258;21.052;2023-07-29T11:56:32;3.05;;;2.00;;
65996;SDS011;52765;52.258;21.052;2023-07-29T11:58:57;2.90;;;2.00;;
65996;SDS011;52765;52.258;21.052;2023-07-29T12:01:24;3.55;;;2.60;;
65996;SDS011;52765;52.258;21.052;2023-07-29T12:03:50;2.20;;;2.00;;
65996;SDS011;52765;52.258;21.052;2023-07-29T12:06:16;2.10;;;1.83;;
65996;SDS011;52765;52.258;21.052;2023-07-29T12:08:42;1.70;;;1.60;;
65996;SDS011;52765;52.258;21.052;2023-07-29T12:11:08;3.05;;;2.17;;
65996;SDS011;52765;52.258;21.052;2023-07-29T12:13:37;2.92;;;2.05;;
65996;SDS011;52765;52.258;21.052;2023-07-29T12:16:03;2.05;;;1.85;;
65996;SDS011;52765;52.258;21.052;2023-07-29T12:18:29;2.70;;;1.90;;
65996;SDS011;52765;52.258;21.052;2023-07-29T12:20:58;4.57;;;2.38;;
65996;SDS011;52765;52.258;21.052;2023-07-29T12:23:24;2.83;;;2.15;;
65996;SDS011;52765;52.258;21.052;2023-07-29T12:25:59;3.40;;;2.03;;
65996;SDS011;52765;52.258;21.052;2023-07-29T12:28:26;2.13;;;1.80;;
65996;SDS011;52765;52.258;21.052;2023-07-29T12:30:54;3.60;;;1.90;;
65996;SDS011;52765;52.258;21.052;2023-07-29T12:35:55;3.33;;;1.92;;
65996;SDS011;52765;52.258;21.052;2023-07-29T12:38:21;3.78;;;2.00;;
65996;SDS011;52765;52.258;21.052;2023-07-29T12:40:47;2.33;;;2.13;;
65996;SDS011;52765;52.258;21.052;2023-07-29T12:43:12;2.00;;;1.80;;
65996;SDS011;52765;52.258;21.052;2023-07-29T12:45:37;2.42;;;1.90;;
65996;SDS011;52765;52.258;21.052;2023-07-29T12:48:05;3.50;;;1.98;;
65996;SDS011;52765;52.258;21.052;2023-07-29T12:50:30;2.22;;;1.60;;
65996;SDS011;52765;52.258;21.052;2023-07-29T12:52:57;4.20;;;2.05;;
65996;SDS011;52765;52.258;21.052;2023-07-29T12:55:22;2.17;;;1.65;;
65996;SDS011;52765;52.258;21.052;2023-07-29T12:57:47;3.40;;;2.00;;
65996;SDS011;52765;52.258;21.052;2023-07-29T13:00:13;1.88;;;1.77;;
65996;SDS011;52765;52.258;21.052;2023-07-29T13:02:38;3.90;;;2.22;;
65996;SDS011;52765;52.258;21.052;2023-07-29T13:05:04;1.77;;;1.67;;
65996;SDS011;52765;52.258;21.052;2023-07-29T13:07:31;1.90;;;1.80;;
65996;SDS011;52765;52.258;21.052;2023-07-29T13:09:56;2.03;;;1.83;;
65996;SDS011;52765;52.258;21.052;2023-07-29T13:12:21;2.13;;;1.80;;
65996;SDS011;52765;52.258;21.052;2023-07-29T13:14:47;3.00;;;1.80;;
65996;SDS011;52765;52.258;21.052;2023-07-29T13:17:12;2.58;;;1.73;;
65996;SDS011;52765;52.258;21.052;2023-07-29T13:19:38;2.33;;;1.90;;
65996;SDS011;52765;52.258;21.052;2023-07-29T13:22:03;2.00;;;1.80;;
65996;SDS011;52765;52.258;21.052;2023-07-29T13:24:29;3.70;;;1.80;;
65996;SDS011;52765;52.258;21.052;2023-07-29T13:26:54;1.63;;;1.52;;
65996;SDS011;52765;52.258;21.052;2023-07-29T13:29:19;5.30;;;2.47;;
65996;SDS011;52765;52.258;21.052;2023-07-29T13:31:45;1.95;;;1.58;;
65996;SDS011;52765;52.258;21.052;2023-07-29T13:34:10;1.60;;;1.50;;
65996;SDS011;52765;52.258;21.052;2023-07-29T13:36:36;1.75;;;1.65;;
65996;SDS011;52765;52.258;21.052;2023-07-29T13:39:02;1.60;;;1.50;;
65996;SDS011;52765;52.258;21.052;2023-07-29T13:41:27;1.63;;;1.52;;
65996;SDS011;52765;52.258;21.052;2023-07-29T13:43:53;2.00;;;1.90;;
65996;SDS011;52765;52.258;21.052;2023-07-29T13:46:18;2.25;;;2.00;;
65996;SDS011;52765;52.258;21.052;2023-07-29T13:48:46;3.30;;;2.00;;
65996;SDS011;52765;52.258;21.052;2023-07-29T13:51:11;7.15;;;2.63;;
65996;SDS011;52765;52.258;21.052;2023-07-29T13:53:40;2.28;;;2.05;;
65996;SDS011;52765;52.258;21.052;2023-07-29T13:56:05;2.38;;;1.95;;
65996;SDS011;52765;52.258;21.052;2023-07-29T13:58:31;4.95;;;2.28;;
65996;SDS011;52765;52.258;21.052;2023-07-29T14:00:56;3.22;;;2.50;;
65996;SDS011;52765;52.258;21.052;2023-07-29T14:03:22;3.05;;;2.40;;
65996;SDS011;52765;52.258;21.052;2023-07-29T14:05:47;3.30;;;2.38;;
65996;SDS011;52765;52.258;21.052;2023-07-29T14:08:13;2.78;;;2.10;;
65996;SDS011;52765;52.258;21.052;2023-07-29T14:10:38;2.92;;;2.20;;
65996;SDS011;52765;52.258;21.052;2023-07-29T14:13:03;2.30;;;2.10;;
65996;SDS011;52765;52.258;21.052;2023-07-29T14:15:29;2.45;;;2.00;;
65996;SDS011;52765;52.258;21.052;2023-07-29T14:17:57;2.63;;;2.05;;
65996;SDS011;52765;52.258;21.052;2023-07-29T14:20:22;3.22;;;2.17;;
65996;SDS011;52765;52.258;21.052;2023-07-29T14:22:49;2.25;;;1.90;;
65996;SDS011;52765;52.258;21.052;2023-07-29T14:25:15;2.38;;;2.17;;
65996;SDS011;52765;52.258;21.052;2023-07-29T14:27:40;2.25;;;2.05;;
65996;SDS011;52765;52.258;21.052;2023-07-29T14:30:06;3.05;;;2.38;;
65996;SDS011;52765;52.258;21.052;2023-07-29T14:32:32;4.68;;;1.98;;
65996;SDS011;52765;52.258;21.052;2023-07-29T14:34:58;2.30;;;2.08;;
65996;SDS011;52765;52.258;21.052;2023-07-29T14:37:28;4.03;;;2.13;;
65996;SDS011;52765;52.258;21.052;2023-07-29T14:39:54;2.90;;;2.22;;
65996;SDS011;52765;52.258;21.052;2023-07-29T14:42:19;3.47;;;2.10;;
65996;SDS011;52765;52.258;21.052;2023-07-29T14:44:44;3.30;;;2.00;;
65996;SDS011;52765;52.258;21.052;2023-07-29T14:47:10;3.08;;;2.20;;
65996;SDS011;52765;52.258;21.052;2023-07-29T14:49:39;3.90;;;2.20;;
65996;SDS011;52765;52.258;21.052;2023-07-29T14:52:07;2.47;;;2.28;;